OIIK  Qazvin Airport

Add Bookmark

Qazvin, Iran

Status
Operational
Latitude Longitude
36° 14' 24" N 50° 2' 49" E
36.240101 50.047100
Local (DST + 5) UTC (GMT + 4)
Dec 19, 2014 12:11 Dec 19, 2014 08:41
Sunrise-Sunset Local UTC
Begin Civil Twilight 06:46 03:16
Sunrise 07:14 03:44
Sunset 04:59 13:29
End Civil Twilight 05:27 13:57

Current Weather

METAR Observed MVFR
OIIK 190800Z 13002KT 7000 FEW040 OVC180 07/M01 Q1024 Fri, Dec 19, 2014 @ 08:00 UTC
(41 Minutes ago)
Marginal Visual Flight Rules
Wind Visibility Clouds Conditions
130° at 2 knots (4 kph) 7000 meters
  • Few at 4,000' AGL
  • Overcast at 18,000' AGL
  • No significant weather
Temperatures Readings Precipitation
Current Temp 7°C (45°F)
Dewpoint -1°C (30°F)
Humidity 57%
Altimeter 30.24"Hg
Sea Level Pressure 1024mb
Field Elevation 4192.91'
None Recorded

Additional weather within a 92.6km radius of OIIK

Map ICAO Location
OIIP 87km S (126°)

24 Hour Weather History

Loading
-

24 Hour Weather Graphs

Loading
-

CheckWX.com is intended as a tool to help pilots better visualize weather data. It is not intended as a substitute for an official weather briefing obtained from a Flight Service Station. CheckWX.com does not meet the FAA requirements for an official pre-flight weather briefing. Therefore, it's important that pilots still call and obtain an official FSS pre-flight weather briefing.